Time;durP1;ratioP1;P1;durP2;ratioP2;P2;SDS_P1;SDS_P2;PMS_P1;PMS_P2;Temp;Humidity;BMP_temperature;BMP_pressure;BME280_temperature;BME280_humidity;BME280_pressure;Samples;Min_cycle;Max_cycle;Signal;HPM_P1;HPM_P2
2023/11/10 00:00:10;;;;;;;;;;;10.00;81.70;;;;;;5099705;28;19924;-65
2023/11/10 00:02:43;;;;;;;;;;;9.90;81.70;;;;;;5101115;28;19969;-65
2023/11/10 00:05:17;;;;;;;;;;;9.90;81.80;;;;;;5098485;27;19934;-65
2023/11/10 00:10:41;;;;;;;;;;;10.00;81.70;;;;;;5997735;22;19923;-70
2023/11/10 00:13:16;;;;;;;;;;;10.00;81.80;;;;;;5026600;28;20367;-66
2023/11/10 00:15:50;;;;;;;;;;;10.00;81.90;;;;;;5025230;28;19939;-64
2023/11/10 00:18:23;;;;;;;;;;;9.90;81.70;;;;;;5062010;22;19932;-64
2023/11/10 00:20:56;;;;;;;;;;;9.90;81.80;;;;;;5069124;28;20428;-64
2023/11/10 00:23:29;;;;;;;;;;;10.00;81.80;;;;;;5074221;28;20246;-65
2023/11/10 00:26:02;;;;;;;;;;;9.90;81.90;;;;;;5074339;28;19924;-65
2023/11/10 00:28:38;;;;;;;;;;;9.90;82.10;;;;;;5072647;28;20679;-65
2023/11/10 00:31:11;;;;;;;;;;;9.90;82.10;;;;;;5054782;28;19928;-65
2023/11/10 00:33:44;;;;;;;;;;;9.90;82.20;;;;;;5074641;28;20400;-66
2023/11/10 00:36:17;;;;;;;;;;;9.90;82.30;;;;;;5076996;28;20366;-64
2023/11/10 00:38:51;;;;;;;;;;;10.00;82.50;;;;;;5076234;28;20298;-65
2023/11/10 00:41:24;;;;;;;;;;;9.90;82.60;;;;;;5060043;28;19925;-65
2023/11/10 00:43:59;;;;;;;;;;;9.90;82.70;;;;;;5076097;28;20397;-64
2023/11/10 00:46:33;;;;;;;;;;;9.90;82.80;;;;;;5050745;28;19924;-64
2023/11/10 00:49:09;;;;;;;;;;;9.90;82.90;;;;;;5055444;28;19964;-65
2023/11/10 00:51:43;;;;;;;;;;;9.80;83.00;;;;;;5077354;28;20675;-64
2023/11/10 00:54:16;;;;;;;;;;;9.80;83.20;;;;;;5077332;28;20021;-66
2023/11/10 00:56:43;;;;;;;;;;;9.80;83.10;;;;;;5075673;28;20015;-64
2023/11/10 00:59:19;;;;;;;;;;;9.70;83.20;;;;;;5074805;28;19929;-65
2023/11/10 01:01:52;;;;;;;;;;;9.80;83.30;;;;;;5073916;28;19924;-63
2023/11/10 01:04:25;;;;;;;;;;;9.70;83.40;;;;;;5057110;28;20014;-64
2023/11/10 01:06:59;;;;;;;;;;;9.70;83.50;;;;;;5073305;28;20043;-64
2023/11/10 01:09:32;;;;;;;;;;;9.70;83.60;;;;;;5073770;28;19934;-65
2023/11/10 01:12:05;;;;;;;;;;;9.60;83.70;;;;;;5054588;28;19924;-66
2023/11/10 01:14:40;;;;;;;;;;;9.60;83.70;;;;;;5071587;28;19928;-64
2023/11/10 01:17:14;;;;;;;;;;;9.60;83.80;;;;;;5074271;28;19924;-64
2023/11/10 01:19:47;;;;;;;;;;;9.60;83.80;;;;;;5057893;28;20013;-65
2023/11/10 01:22:20;;;;;;;;;;;9.60;83.80;;;;;;5055969;28;19936;-76
2023/11/10 01:24:53;;;;;;;;;;;9.60;83.90;;;;;;5077852;28;19924;-72
2023/11/10 01:27:28;;;;;;;;;;;9.60;83.90;;;;;;5079578;28;19928;-76
2023/11/10 01:30:02;;;;;;;;;;;9.60;83.90;;;;;;5078356;28;19932;-76
2023/11/10 01:32:36;;;;;;;;;;;9.60;83.90;;;;;;5079636;28;20336;-73
2023/11/10 01:35:09;;;;;;;;;;;9.70;84.00;;;;;;5080524;28;19927;-74
2023/11/10 01:37:43;;;;;;;;;;;9.70;84.10;;;;;;5061274;28;19986;-74
2023/11/10 01:40:16;;;;;;;;;;;9.60;84.10;;;;;;5080492;28;19924;-73
2023/11/10 01:42:49;;;;;;;;;;;9.70;84.10;;;;;;5080337;27;19924;-76
2023/11/10 01:45:23;;;;;;;;;;;9.70;84.00;;;;;;5080425;28;19932;-75
2023/11/10 01:47:57;;;;;;;;;;;9.70;84.10;;;;;;5061332;28;20365;-75
2023/11/10 01:50:31;;;;;;;;;;;9.70;84.30;;;;;;5078631;28;19963;-76
2023/11/10 01:53:06;;;;;;;;;;;9.70;84.30;;;;;;5062068;28;20275;-74
2023/11/10 01:55:41;;;;;;;;;;;9.70;84.40;;;;;;5060470;28;19963;-75
2023/11/10 01:58:14;;;;;;;;;;;9.70;84.50;;;;;;5079115;28;19924;-76
2023/11/10 02:00:49;;;;;;;;;;;9.70;84.50;;;;;;5054930;28;19924;-72
2023/11/10 02:03:23;;;;;;;;;;;9.70;84.60;;;;;;5060369;28;19928;-76
2023/11/10 02:05:57;;;;;;;;;;;9.70;84.70;;;;;;5074196;28;19924;-74
2023/11/10 02:08:31;;;;;;;;;;;9.70;84.90;;;;;;5076857;28;19936;-76
2023/11/10 02:11:04;;;;;;;;;;;9.70;85.10;;;;;;5076072;28;20015;-76
2023/11/10 02:13:37;;;;;;;;;;;9.70;85.60;;;;;;5079621;28;19931;-76
2023/11/10 02:16:11;;;;;;;;;;;9.60;86.30;;;;;;5057016;28;19931;-74
2023/11/10 02:18:45;;;;;;;;;;;9.60;86.70;;;;;;5067019;28;20356;-76
2023/11/10 02:21:18;;;;;;;;;;;9.50;86.50;;;;;;5058297;28;20040;-77
2023/11/10 02:23:52;;;;;;;;;;;9.40;86.60;;;;;;5057296;28;20021;-75
2023/11/10 02:26:27;;;;;;;;;;;9.40;86.70;;;;;;5057610;28;20087;-73
2023/11/10 02:29:00;;;;;;;;;;;9.40;86.60;;;;;;5058437;28;20398;-75
2023/11/10 02:31:33;;;;;;;;;;;9.40;86.60;;;;;;5051051;28;19935;-73
2023/11/10 02:34:06;;;;;;;;;;;9.40;86.60;;;;;;5057536;28;19933;-72
2023/11/10 02:36:40;;;;;;;;;;;9.40;86.70;;;;;;5046722;28;20028;-73
2023/11/10 02:39:13;;;;;;;;;;;9.40;86.80;;;;;;5078408;28;19931;-73
2023/11/10 02:41:48;;;;;;;;;;;9.40;86.80;;;;;;5052765;28;19924;-74
2023/11/10 02:44:21;;;;;;;;;;;9.40;86.90;;;;;;5076169;28;24403;-74
2023/11/10 02:46:54;;;;;;;;;;;9.40;87.00;;;;;;5054611;28;20381;-73
2023/11/10 02:49:27;;;;;;;;;;;9.40;87.20;;;;;;5076224;28;20017;-73
2023/11/10 02:51:53;;;;;;;;;;;9.40;87.30;;;;;;5062981;28;19929;-73
2023/11/10 02:54:27;;;;;;;;;;;9.40;87.30;;;;;;5078144;28;19943;-72
2023/11/10 02:57:01;;;;;;;;;;;9.40;87.30;;;;;;5061025;28;20352;-73
2023/11/10 02:59:35;;;;;;;;;;;9.40;87.40;;;;;;5060827;28;19955;-72
2023/11/10 03:02:08;;;;;;;;;;;9.40;87.50;;;;;;5058898;28;20326;-72
2023/11/10 03:04:37;;;;;;;;;;;9.40;87.50;;;;;;5059679;28;19924;-73
2023/11/10 03:07:10;;;;;;;;;;;9.40;87.60;;;;;;5080255;28;21304;-71
2023/11/10 03:09:39;;;;;;;;;;;9.40;87.80;;;;;;5079148;28;20294;-73
2023/11/10 03:12:14;;;;;;;;;;;9.40;87.90;;;;;;5050751;28;19943;-72
2023/11/10 03:14:48;;;;;;;;;;;9.40;87.90;;;;;;5065916;28;20556;-72
2023/11/10 03:17:21;;;;;;;;;;;9.30;87.90;;;;;;5070152;28;20400;-72
2023/11/10 03:19:54;;;;;;;;;;;9.30;87.80;;;;;;5079309;28;20830;-73
2023/11/10 03:22:28;;;;;;;;;;;9.30;87.70;;;;;;5061723;28;20449;-72
2023/11/10 03:25:07;;;;;;;;;;;9.30;87.70;;;;;;5077490;28;19928;-72
2023/11/10 03:27:42;;;;;;;;;;;9.30;87.60;;;;;;5079763;28;19932;-73
2023/11/10 03:30:16;;;;;;;;;;;9.20;87.60;;;;;;5077549;28;19990;-73
2023/11/10 03:32:49;;;;;;;;;;;9.30;87.50;;;;;;5078003;28;19935;-73
2023/11/10 03:35:22;;;;;;;;;;;9.30;87.50;;;;;;5060636;28;19956;-73
2023/11/10 03:37:55;;;;;;;;;;;9.30;87.50;;;;;;5073673;28;19931;-72
2023/11/10 03:40:28;;;;;;;;;;;9.20;87.50;;;;;;5079383;28;20383;-74
2023/11/10 03:43:02;;;;;;;;;;;9.20;87.40;;;;;;5079493;28;19928;-73
2023/11/10 03:45:36;;;;;;;;;;;9.20;87.40;;;;;;5077301;28;19956;-73
2023/11/10 03:48:09;;;;;;;;;;;9.20;87.40;;;;;;5066421;28;19930;-73
2023/11/10 03:50:43;;;;;;;;;;;9.20;87.40;;;;;;5061328;28;20453;-64
2023/11/10 03:53:16;;;;;;;;;;;9.20;87.40;;;;;;5079014;28;19928;-65
2023/11/10 03:55:49;;;;;;;;;;;9.20;87.50;;;;;;5077927;28;20024;-63
2023/11/10 03:58:23;;;;;;;;;;;9.20;87.50;;;;;;5077397;28;20301;-64
2023/11/10 04:00:57;;;;;;;;;;;9.20;87.70;;;;;;5076150;28;19970;-64
2023/11/10 04:03:24;;;;;;;;;;;9.20;87.70;;;;;;5077321;28;20370;-66
2023/11/10 04:05:57;;;;;;;;;;;9.10;87.80;;;;;;5076276;28;19924;-65
2023/11/10 04:08:30;;;;;;;;;;;9.10;87.90;;;;;;5072239;28;19925;-66
2023/11/10 04:11:03;;;;;;;;;;;9.10;88.00;;;;;;5076194;28;19947;-64
2023/11/10 04:13:31;;;;;;;;;;;9.10;88.10;;;;;;5078891;28;19952;-65
2023/11/10 04:16:06;;;;;;;;;;;9.10;88.20;;;;;;5075594;28;19944;-65
2023/11/10 04:18:39;;;;;;;;;;;9.10;88.20;;;;;;5073306;28;20026;-65
2023/11/10 04:21:12;;;;;;;;;;;9.10;88.00;;;;;;5078879;28;20720;-65
2023/11/10 04:23:45;;;;;;;;;;;9.10;88.00;;;;;;5077180;28;20298;-64
2023/11/10 04:26:20;;;;;;;;;;;9.10;87.90;;;;;;5076691;28;19927;-66
2023/11/10 04:28:55;;;;;;;;;;;9.10;88.00;;;;;;5075754;28;19935;-66
2023/11/10 04:31:31;;;;;;;;;;;9.10;88.00;;;;;;5076475;28;20267;-67
2023/11/10 04:34:04;;;;;;;;;;;9.10;87.90;;;;;;5069312;28;20022;-64
2023/11/10 04:36:38;;;;;;;;;;;9.20;87.90;;;;;;5069863;28;20305;-65
2023/11/10 04:39:12;;;;;;;;;;;9.10;87.90;;;;;;5077773;28;19974;-63
2023/11/10 04:41:46;;;;;;;;;;;9.10;88.00;;;;;;5077204;28;19929;-65
2023/11/10 04:44:23;;;;;;;;;;;9.10;88.10;;;;;;5079042;28;19952;-64
2023/11/10 04:46:56;;;;;;;;;;;9.00;87.90;;;;;;5068339;28;20324;-65
2023/11/10 04:49:29;;;;;;;;;;;9.00;87.90;;;;;;5057097;28;20299;-64
2023/11/10 04:52:02;;;;;;;;;;;9.00;87.90;;;;;;5073679;28;19928;-64
2023/11/10 04:54:35;;;;;;;;;;;9.10;87.90;;;;;;5079337;28;19932;-64
2023/11/10 04:57:08;;;;;;;;;;;9.00;88.00;;;;;;5084923;28;20008;-65
2023/11/10 04:59:47;;;;;;;;;;;9.00;88.00;;;;;;5076157;28;19978;-64
2023/11/10 05:02:20;;;;;;;;;;;9.00;88.00;;;;;;5082480;28;19932;-68
2023/11/10 05:04:53;;;;;;;;;;;8.90;88.20;;;;;;5083871;28;19924;-68
2023/11/10 05:07:26;;;;;;;;;;;9.00;88.20;;;;;;5082831;28;19951;-67
2023/11/10 05:10:00;;;;;;;;;;;8.90;88.30;;;;;;5083655;28;19933;-69
2023/11/10 05:12:34;;;;;;;;;;;8.90;88.40;;;;;;5084343;28;19952;-67
2023/11/10 05:15:10;;;;;;;;;;;8.90;88.40;;;;;;5083258;28;19974;-69
2023/11/10 05:17:44;;;;;;;;;;;8.80;88.60;;;;;;5081341;28;20012;-68
2023/11/10 05:20:17;;;;;;;;;;;8.90;88.60;;;;;;5076114;28;20325;-68
2023/11/10 05:22:44;;;;;;;;;;;8.80;88.50;;;;;;5079149;28;20046;-69
2023/11/10 05:25:18;;;;;;;;;;;8.80;88.60;;;;;;5084224;28;19931;-67
2023/11/10 05:27:51;;;;;;;;;;;8.80;88.30;;;;;;5083784;28;19931;-69
2023/11/10 05:30:25;;;;;;;;;;;8.70;88.10;;;;;;5082240;28;19932;-68
2023/11/10 05:32:58;;;;;;;;;;;8.70;87.80;;;;;;5081792;28;19928;-68
2023/11/10 05:35:24;;;;;;;;;;;8.70;87.70;;;;;;5083217;28;20019;-70
2023/11/10 05:37:58;;;;;;;;;;;8.70;87.70;;;;;;5081896;28;20003;-68
2023/11/10 05:40:32;;;;;;;;;;;8.70;87.50;;;;;;5064909;28;19985;-69
2023/11/10 05:43:06;;;;;;;;;;;8.70;87.60;;;;;;5084125;28;20043;-69
2023/11/10 05:45:41;;;;;;;;;;;8.70;87.70;;;;;;5080239;28;20815;-69
2023/11/10 05:48:15;;;;;;;;;;;8.70;87.60;;;;;;5085082;28;19978;-68
2023/11/10 05:50:49;;;;;;;;;;;8.70;87.60;;;;;;5079257;28;20429;-67
2023/11/10 05:53:22;;;;;;;;;;;8.70;87.70;;;;;;5084960;28;19932;-67
2023/11/10 05:55:56;;;;;;;;;;;8.60;87.70;;;;;;5082008;28;20022;-68
2023/11/10 05:58:29;;;;;;;;;;;8.70;87.80;;;;;;5085314;28;19971;-69
2023/11/10 06:01:04;;;;;;;;;;;8.70;87.80;;;;;;5082364;28;20019;-68
2023/11/10 06:03:37;;;;;;;;;;;8.70;87.90;;;;;;5085632;28;20015;-66
2023/11/10 06:06:10;;;;;;;;;;;8.70;87.90;;;;;;5078381;28;19924;-68
2023/11/10 06:08:44;;;;;;;;;;;8.70;88.00;;;;;;5075992;28;19938;-68
2023/11/10 06:11:20;;;;;;;;;;;8.70;88.10;;;;;;5078987;28;20015;-61
2023/11/10 06:13:56;;;;;;;;;;;8.70;88.00;;;;;;5080226;28;19936;-61
2023/11/10 06:16:31;;;;;;;;;;;8.70;88.00;;;;;;5071411;28;19935;-61
2023/11/10 06:19:05;;;;;;;;;;;8.70;88.20;;;;;;5080443;28;20344;-61
2023/11/10 06:21:38;;;;;;;;;;;8.60;88.20;;;;;;5081332;28;20294;-61
2023/11/10 06:24:12;;;;;;;;;;;8.60;88.10;;;;;;5078446;28;20325;-60
2023/11/10 06:26:46;;;;;;;;;;;8.60;88.00;;;;;;5078452;28;20430;-61
2023/11/10 06:29:19;;;;;;;;;;;8.60;88.10;;;;;;5077464;28;20401;-61
2023/11/10 06:31:53;;;;;;;;;;;8.60;88.10;;;;;;5076072;28;20004;-61
2023/11/10 06:34:27;;;;;;;;;;;8.60;88.00;;;;;;5077511;28;19931;-61
2023/11/10 06:37:01;;;;;;;;;;;8.60;88.10;;;;;;5080015;28;20256;-61
2023/11/10 06:39:34;;;;;;;;;;;8.60;88.10;;;;;;5079619;27;20439;-62
2023/11/10 06:42:07;;;;;;;;;;;8.60;88.00;;;;;;5076696;28;20405;-61
2023/11/10 06:44:41;;;;;;;;;;;8.60;88.10;;;;;;5079663;28;20444;-61
2023/11/10 06:47:15;;;;;;;;;;;8.60;88.10;;;;;;5078290;28;20375;-60
2023/11/10 06:49:49;;;;;;;;;;;8.60;88.00;;;;;;5075058;28;19924;-61
2023/11/10 06:52:22;;;;;;;;;;;8.60;88.20;;;;;;5080077;28;19924;-61
2023/11/10 06:54:48;;;;;;;;;;;8.60;88.20;;;;;;5080195;28;19924;-60
2023/11/10 06:57:22;;;;;;;;;;;8.60;88.30;;;;;;5076240;28;19924;-62
2023/11/10 06:59:56;;;;;;;;;;;8.60;88.30;;;;;;5076982;28;20032;-60
2023/11/10 07:02:30;;;;;;;;;;;8.60;88.30;;;;;;5075796;28;20019;-61
2023/11/10 07:05:04;;;;;;;;;;;8.60;88.30;;;;;;5076774;28;19969;-60
2023/11/10 07:07:37;;;;;;;;;;;8.60;88.20;;;;;;5077486;28;19956;-60
2023/11/10 07:10:10;;;;;;;;;;;8.60;88.30;;;;;;5047555;28;19924;-61
2023/11/10 07:12:43;;;;;;;;;;;8.60;88.30;;;;;;5046381;28;19924;-61
2023/11/10 07:15:16;;;;;;;;;;;8.70;88.40;;;;;;5050163;28;20624;-61
2023/11/10 07:17:50;;;;;;;;;;;8.70;88.40;;;;;;5048993;28;19928;-60
2023/11/10 07:20:24;;;;;;;;;;;8.60;88.50;;;;;;5051676;28;19931;-60
2023/11/10 07:22:58;;;;;;;;;;;8.60;88.70;;;;;;5050381;28;19924;-59
2023/11/10 07:25:32;;;;;;;;;;;8.60;88.70;;;;;;5050353;28;19928;-61
2023/11/10 07:28:05;;;;;;;;;;;8.60;88.70;;;;;;5056806;28;19933;-61
2023/11/10 07:30:40;;;;;;;;;;;8.70;88.40;;;;;;5062264;28;19929;-60
2023/11/10 07:33:14;;;;;;;;;;;8.70;88.30;;;;;;5075963;28;19970;-60
2023/11/10 07:35:42;;;;;;;;;;;8.70;88.40;;;;;;5079120;28;19928;-61
2023/11/10 07:38:16;;;;;;;;;;;8.70;88.50;;;;;;5079685;28;19924;-61
2023/11/10 07:40:49;;;;;;;;;;;8.80;88.30;;;;;;5077920;28;19936;-62
2023/11/10 07:43:22;;;;;;;;;;;8.80;88.40;;;;;;5075694;28;19934;-61
2023/11/10 07:45:55;;;;;;;;;;;8.70;88.50;;;;;;5076389;28;19935;-61
2023/11/10 07:48:29;;;;;;;;;;;8.70;88.40;;;;;;5078043;28;20468;-60
2023/11/10 07:51:03;;;;;;;;;;;8.70;88.40;;;;;;5077936;28;20016;-61
2023/11/10 07:53:37;;;;;;;;;;;8.70;88.30;;;;;;5076217;28;19936;-61
2023/11/10 07:56:10;;;;;;;;;;;8.80;88.30;;;;;;5076239;28;19956;-61
2023/11/10 07:58:43;;;;;;;;;;;8.90;88.30;;;;;;5079142;28;19925;-60
2023/11/10 08:01:16;;;;;;;;;;;8.90;88.20;;;;;;5075670;28;20468;-61
2023/11/10 08:03:44;;;;;;;;;;;8.80;88.20;;;;;;5077918;28;19924;-61
2023/11/10 08:06:17;;;;;;;;;;;8.80;88.20;;;;;;5078218;28;19929;-61
2023/11/10 08:08:57;;;;;;;;;;;8.80;88.10;;;;;;5078614;28;19958;-61
2023/11/10 08:11:30;;;;;;;;;;;8.80;88.10;;;;;;5073897;28;19931;-61
2023/11/10 08:14:03;;;;;;;;;;;8.80;88.10;;;;;;5077707;28;19950;-60
2023/11/10 08:16:36;;;;;;;;;;;8.70;88.20;;;;;;5075200;28;19939;-61
2023/11/10 08:19:10;;;;;;;;;;;8.80;88.00;;;;;;5073443;28;19954;-60
2023/11/10 08:21:37;;;;;;;;;;;8.80;88.00;;;;;;5077279;28;19924;-62
2023/11/10 08:24:10;;;;;;;;;;;8.70;87.90;;;;;;5075589;28;20436;-62
2023/11/10 08:26:44;;;;;;;;;;;8.70;88.00;;;;;;5074107;28;20366;-61
2023/11/10 08:29:17;;;;;;;;;;;8.70;88.10;;;;;;5076028;28;19928;-62
2023/11/10 08:31:50;;;;;;;;;;;8.80;88.00;;;;;;5074912;28;20329;-63
2023/11/10 08:34:25;;;;;;;;;;;8.70;87.90;;;;;;5076470;28;20378;-62
2023/11/10 08:36:59;;;;;;;;;;;8.80;87.90;;;;;;5077219;28;19924;-61
2023/11/10 08:39:32;;;;;;;;;;;8.90;87.90;;;;;;5077237;28;20011;-63
2023/11/10 08:42:05;;;;;;;;;;;8.90;88.00;;;;;;5075799;28;19942;-62
2023/11/10 08:44:38;;;;;;;;;;;8.90;87.90;;;;;;5075225;28;19946;-61
2023/11/10 08:47:12;;;;;;;;;;;8.90;88.10;;;;;;5074284;28;20009;-61
2023/11/10 08:49:46;;;;;;;;;;;8.90;88.00;;;;;;5077425;28;20382;-61
2023/11/10 08:52:20;;;;;;;;;;;9.00;87.80;;;;;;5077012;28;19932;-61
2023/11/10 08:54:48;;;;;;;;;;;9.00;87.90;;;;;;5076025;28;20433;-60
2023/11/10 08:57:21;;;;;;;;;;;9.10;87.80;;;;;;5075947;28;19928;-60
2023/11/10 08:59:54;;;;;;;;;;;9.10;87.70;;;;;;5076696;28;19938;-60
2023/11/10 09:02:21;;;;;;;;;;;9.10;87.80;;;;;;5075348;28;19974;-59
2023/11/10 09:04:57;;;;;;;;;;;9.10;87.70;;;;;;5074864;28;19935;-61
2023/11/10 09:07:31;;;;;;;;;;;9.00;87.90;;;;;;5076684;27;19928;-61
2023/11/10 09:10:04;;;;;;;;;;;9.00;87.70;;;;;;5075845;28;19931;-59
2023/11/10 09:12:41;;;;;;;;;;;9.00;87.70;;;;;;5070900;28;19928;-61
2023/11/10 09:15:14;;;;;;;;;;;9.00;87.70;;;;;;5072403;28;19932;-61
2023/11/10 09:17:49;;;;;;;;;;;9.10;87.60;;;;;;5074761;28;19928;-60
2023/11/10 09:20:17;;;;;;;;;;;9.10;87.60;;;;;;5077269;28;19936;-60
2023/11/10 09:22:50;;;;;;;;;;;9.10;87.70;;;;;;5071642;28;19924;-60
2023/11/10 09:25:24;;;;;;;;;;;9.10;87.80;;;;;;5077343;28;20352;-61
2023/11/10 09:27:58;;;;;;;;;;;9.10;87.70;;;;;;5073733;27;19930;-60
2023/11/10 09:30:33;;;;;;;;;;;9.10;87.70;;;;;;5076028;28;19935;-62
2023/11/10 09:33:06;;;;;;;;;;;9.10;87.80;;;;;;5076287;28;19974;-61
2023/11/10 09:35:41;;;;;;;;;;;9.00;87.80;;;;;;5077500;28;19932;-61
2023/11/10 09:38:14;;;;;;;;;;;9.10;87.70;;;;;;5073842;28;20403;-60
2023/11/10 09:40:47;;;;;;;;;;;9.10;87.70;;;;;;5078363;28;19934;-70
2023/11/10 09:43:21;;;;;;;;;;;9.20;87.70;;;;;;5082380;28;19925;-73
2023/11/10 09:45:55;;;;;;;;;;;9.30;87.60;;;;;;5078340;28;19929;-72
2023/11/10 09:48:29;;;;;;;;;;;9.30;87.10;;;;;;5083138;28;20405;-71
2023/11/10 09:51:11;;;;;;;;;;;9.30;87.10;;;;;;5078420;28;19924;-71
2023/11/10 09:53:45;;;;;;;;;;;9.40;86.90;;;;;;5079871;28;20340;-72
2023/11/10 09:56:20;;;;;;;;;;;9.30;87.00;;;;;;5078859;28;20539;-72
2023/11/10 09:58:53;;;;;;;;;;;9.20;87.00;;;;;;5081655;28;19947;-72
2023/11/10 10:01:27;;;;;;;;;;;9.30;86.90;;;;;;5079475;28;19933;-72
2023/11/10 10:04:00;;;;;;;;;;;9.40;86.50;;;;;;5083672;28;19932;-73
2023/11/10 10:06:36;;;;;;;;;;;9.50;86.20;;;;;;5081139;28;20488;-72
2023/11/10 10:09:10;;;;;;;;;;;9.70;85.80;;;;;;5083380;28;20023;-72
2023/11/10 10:11:43;;;;;;;;;;;9.80;85.50;;;;;;5080735;28;19951;-71
2023/11/10 10:14:17;;;;;;;;;;;9.90;85.10;;;;;;5078718;28;19928;-72
2023/11/10 10:16:53;;;;;;;;;;;9.90;85.10;;;;;;5080505;27;19924;-72
2023/11/10 10:19:28;;;;;;;;;;;10.00;84.90;;;;;;5079698;28;19986;-72
2023/11/10 10:22:02;;;;;;;;;;;10.10;84.30;;;;;;5079023;28;20044;-71
2023/11/10 10:24:36;;;;;;;;;;;10.10;84.10;;;;;;5078663;28;19990;-71
2023/11/10 10:27:10;;;;;;;;;;;10.10;84.20;;;;;;5078641;28;19994;-73
2023/11/10 10:29:43;;;;;;;;;;;10.10;84.00;;;;;;5079691;28;20366;-73
2023/11/10 10:32:16;;;;;;;;;;;10.10;83.80;;;;;;5077651;28;20005;-70
2023/11/10 10:34:50;;;;;;;;;;;10.10;83.80;;;;;;5081593;28;19924;-72
2023/11/10 10:37:24;;;;;;;;;;;10.00;83.60;;;;;;5076792;28;19928;-73
2023/11/10 10:40:00;;;;;;;;;;;9.90;83.50;;;;;;5061801;28;20332;-73
2023/11/10 10:42:34;;;;;;;;;;;9.90;83.50;;;;;;5077104;28;19924;-73
2023/11/10 10:45:03;;;;;;;;;;;9.80;83.40;;;;;;5078642;28;20402;-71
2023/11/10 10:47:37;;;;;;;;;;;9.90;83.20;;;;;;5080143;28;19928;-72
2023/11/10 10:50:11;;;;;;;;;;;9.80;82.80;;;;;;5078555;28;19924;-72
2023/11/10 10:52:47;;;;;;;;;;;9.80;82.90;;;;;;5075230;28;20554;-74
2023/11/10 10:55:20;;;;;;;;;;;9.80;82.70;;;;;;5079676;28;19932;-73
2023/11/10 10:57:54;;;;;;;;;;;9.80;82.70;;;;;;5079304;28;20393;-72
2023/11/10 11:00:27;;;;;;;;;;;9.90;82.70;;;;;;5077816;28;19929;-73
2023/11/10 11:03:08;;;;;;;;;;;9.90;82.00;;;;;;5080014;28;20049;-73
2023/11/10 11:05:49;;;;;;;;;;;10.00;82.10;;;;;;5076476;28;20341;-73
2023/11/10 11:08:42;;;;;;;;;;;10.00;81.60;;;;;;5078940;28;19932;-72
2023/11/10 11:11:30;;;;;;;;;;;9.90;81.50;;;;;;5076505;28;20374;-73
2023/11/10 11:14:21;;;;;;;;;;;9.90;81.40;;;;;;5066970;28;19978;-72
2023/11/10 11:17:00;;;;;;;;;;;10.00;81.90;;;;;;5058958;28;19936;-73
2023/11/10 11:19:35;;;;;;;;;;;10.10;82.10;;;;;;5077911;28;20437;-74
2023/11/10 11:22:09;;;;;;;;;;;10.10;82.20;;;;;;5080288;28;19924;-71
2023/11/10 11:24:45;;;;;;;;;;;10.00;82.60;;;;;;5074909;28;19933;-73
2023/11/10 11:27:21;;;;;;;;;;;9.90;82.90;;;;;;5081285;28;19924;-73
2023/11/10 11:29:55;;;;;;;;;;;9.90;83.10;;;;;;5077791;28;20032;-73
2023/11/10 11:32:30;;;;;;;;;;;9.90;83.10;;;;;;5077010;28;19928;-73
2023/11/10 11:35:04;;;;;;;;;;;10.00;83.10;;;;;;5076554;28;19975;-72
2023/11/10 11:37:37;;;;;;;;;;;10.00;82.90;;;;;;5078367;28;19935;-73
2023/11/10 11:40:12;;;;;;;;;;;10.10;82.70;;;;;;5081522;28;19974;-74
2023/11/10 11:42:45;;;;;;;;;;;10.20;82.30;;;;;;5072149;28;20383;-74
2023/11/10 11:45:19;;;;;;;;;;;10.40;82.10;;;;;;5074579;28;19946;-73
2023/11/10 11:47:52;;;;;;;;;;;10.30;82.10;;;;;;5074700;28;19968;-73
2023/11/10 11:50:25;;;;;;;;;;;10.30;81.90;;;;;;5078308;28;20332;-73
2023/11/10 11:52:58;;;;;;;;;;;10.10;82.00;;;;;;5079358;28;19990;-72
2023/11/10 11:55:26;;;;;;;;;;;10.10;82.20;;;;;;5078403;28;19925;-73
2023/11/10 11:58:00;;;;;;;;;;;10.00;82.30;;;;;;5077053;28;19932;-72
2023/11/10 12:00:35;;;;;;;;;;;9.90;82.40;;;;;;5075944;28;19929;-73
2023/11/10 12:03:09;;;;;;;;;;;9.90;81.70;;;;;;5077387;28;19947;-74
2023/11/10 12:05:43;;;;;;;;;;;9.90;81.40;;;;;;5075684;28;19951;-72
2023/11/10 12:08:17;;;;;;;;;;;9.80;82.00;;;;;;5077276;28;19925;-71
2023/11/10 12:10:51;;;;;;;;;;;9.90;82.50;;;;;;5077373;28;20482;-74
2023/11/10 12:13:26;;;;;;;;;;;9.90;82.60;;;;;;5075015;28;20055;-74
2023/11/10 12:15:59;;;;;;;;;;;10.00;82.40;;;;;;5071840;28;19935;-75
2023/11/10 12:18:35;;;;;;;;;;;10.10;82.40;;;;;;5075407;28;20037;-74
2023/11/10 12:21:08;;;;;;;;;;;10.00;82.80;;;;;;5076032;28;19928;-74
2023/11/10 12:23:41;;;;;;;;;;;9.90;83.00;;;;;;5073141;28;19924;-73
2023/11/10 12:26:16;;;;;;;;;;;9.90;83.30;;;;;;5074306;28;19951;-74
2023/11/10 12:28:52;;;;;;;;;;;9.90;83.50;;;;;;5074777;28;19976;-72
2023/11/10 12:31:25;;;;;;;;;;;9.80;83.40;;;;;;5072177;28;19925;-73
2023/11/10 12:33:59;;;;;;;;;;;9.80;83.40;;;;;;5076884;28;19924;-74
2023/11/10 12:36:33;;;;;;;;;;;9.90;83.30;;;;;;5075721;28;19933;-74
2023/11/10 12:39:09;;;;;;;;;;;9.80;83.40;;;;;;5078467;28;19971;-74
2023/11/10 12:41:51;;;;;;;;;;;9.80;83.50;;;;;;5077406;28;19928;-74
2023/11/10 12:44:24;;;;;;;;;;;9.90;83.70;;;;;;5077649;28;19931;-73
2023/11/10 12:47:00;;;;;;;;;;;9.90;83.60;;;;;;5056909;28;20357;-73
2023/11/10 12:49:33;;;;;;;;;;;9.90;83.60;;;;;;5077008;28;19974;-73
2023/11/10 12:52:09;;;;;;;;;;;9.90;83.80;;;;;;5074442;28;19932;-74
2023/11/10 12:54:43;;;;;;;;;;;9.90;83.70;;;;;;5078235;28;19928;-72
2023/11/10 12:57:19;;;;;;;;;;;9.90;82.90;;;;;;5078802;28;19928;-72
2023/11/10 12:59:53;;;;;;;;;;;9.90;82.60;;;;;;5073833;28;20357;-74
2023/11/10 13:02:27;;;;;;;;;;;9.90;82.50;;;;;;5073328;28;19924;-74
2023/11/10 13:05:00;;;;;;;;;;;9.90;82.20;;;;;;5059494;28;19932;-71
2023/11/10 13:07:33;;;;;;;;;;;9.90;82.20;;;;;;5074289;28;20019;-73
2023/11/10 13:10:07;;;;;;;;;;;9.90;82.30;;;;;;5073775;28;19939;-75
2023/11/10 13:12:41;;;;;;;;;;;9.90;81.80;;;;;;5072957;28;19924;-64
2023/11/10 13:15:15;;;;;;;;;;;9.90;81.50;;;;;;5072977;28;19928;-65
2023/11/10 13:17:49;;;;;;;;;;;10.00;81.40;;;;;;5079032;28;19985;-65
2023/11/10 13:20:22;;;;;;;;;;;10.00;80.80;;;;;;5082276;28;19931;-65
2023/11/10 13:22:55;;;;;;;;;;;10.10;80.40;;;;;;5079187;28;19935;-63
2023/11/10 13:25:28;;;;;;;;;;;10.00;79.80;;;;;;5081714;28;19930;-65
2023/11/10 13:28:06;;;;;;;;;;;10.10;79.90;;;;;;5080072;28;19982;-65
2023/11/10 13:30:40;;;;;;;;;;;10.10;79.90;;;;;;5071240;28;19928;-66
2023/11/10 13:33:13;;;;;;;;;;;10.00;80.00;;;;;;5080753;28;19932;-63
2023/11/10 13:35:47;;;;;;;;;;;9.90;80.30;;;;;;5077786;28;19981;-64
2023/11/10 13:38:20;;;;;;;;;;;9.90;80.70;;;;;;5076176;28;19932;-65
2023/11/10 13:41:00;;;;;;;;;;;9.90;80.50;;;;;;5079952;28;19928;-65
2023/11/10 13:43:35;;;;;;;;;;;9.90;80.40;;;;;;5078562;28;19928;-65
2023/11/10 13:46:08;;;;;;;;;;;9.90;80.50;;;;;;5077611;28;20370;-66
2023/11/10 13:48:45;;;;;;;;;;;9.90;80.30;;;;;;5081901;28;19928;-65
2023/11/10 13:51:18;;;;;;;;;;;9.90;79.70;;;;;;5080876;28;20021;-65
2023/11/10 13:53:45;;;;;;;;;;;9.90;78.80;;;;;;5079914;28;19987;-65
2023/11/10 13:56:18;;;;;;;;;;;10.00;78.00;;;;;;5080571;28;20397;-65
2023/11/10 13:58:53;;;;;;;;;;;10.00;77.30;;;;;;5078445;28;20387;-64
2023/11/10 14:01:26;;;;;;;;;;;10.00;76.50;;;;;;5078802;28;19978;-64
2023/11/10 14:03:59;;;;;;;;;;;10.00;76.50;;;;;;5079936;28;19929;-66
2023/11/10 14:06:32;;;;;;;;;;;10.00;76.20;;;;;;5079008;28;20434;-66
2023/11/10 14:09:08;;;;;;;;;;;10.10;76.60;;;;;;5075452;28;20451;-66
2023/11/10 14:11:42;;;;;;;;;;;10.00;76.10;;;;;;5075470;28;20397;-66
2023/11/10 14:14:16;;;;;;;;;;;10.00;76.10;;;;;;5081234;28;19983;-64
2023/11/10 14:16:50;;;;;;;;;;;10.00;76.70;;;;;;5077837;28;19973;-65
2023/11/10 14:19:25;;;;;;;;;;;10.00;76.20;;;;;;5081712;28;19928;-65
2023/11/10 14:21:58;;;;;;;;;;;10.00;76.30;;;;;;5079144;28;19924;-66
2023/11/10 14:24:31;;;;;;;;;;;10.00;76.30;;;;;;5077020;28;19933;-64
2023/11/10 14:27:04;;;;;;;;;;;10.00;76.20;;;;;;5077874;28;20260;-66
2023/11/10 14:29:41;;;;;;;;;;;9.90;76.00;;;;;;5079831;28;20539;-66
2023/11/10 14:32:15;;;;;;;;;;;9.90;76.30;;;;;;5074017;28;19933;-65
2023/11/10 14:34:50;;;;;;;;;;;9.90;76.10;;;;;;5072078;28;19963;-67
2023/11/10 14:37:24;;;;;;;;;;;9.90;76.50;;;;;;5076133;28;19931;-65
2023/11/10 14:39:58;;;;;;;;;;;9.90;76.70;;;;;;5078812;28;19932;-67
2023/11/10 14:42:31;;;;;;;;;;;9.80;76.70;;;;;;5077495;28;19936;-67
2023/11/10 14:45:00;;;;;;;;;;;9.80;77.20;;;;;;5081595;28;19959;-67
2023/11/10 14:47:33;;;;;;;;;;;9.80;77.80;;;;;;5077661;28;19936;-67
2023/11/10 14:50:13;;;;;;;;;;;9.80;77.70;;;;;;5080952;28;19928;-67
2023/11/10 14:52:47;;;;;;;;;;;9.80;78.00;;;;;;5073757;28;19931;-65
2023/11/10 14:55:22;;;;;;;;;;;9.70;78.00;;;;;;5077754;28;19932;-66
2023/11/10 14:57:55;;;;;;;;;;;9.70;78.10;;;;;;5080424;28;20024;-66
2023/11/10 15:00:29;;;;;;;;;;;9.70;78.40;;;;;;5080936;28;19933;-67
2023/11/10 15:03:04;;;;;;;;;;;9.70;78.50;;;;;;5072396;28;20051;-68
2023/11/10 15:05:37;;;;;;;;;;;9.70;78.80;;;;;;5080595;28;20340;-67
2023/11/10 15:08:10;;;;;;;;;;;9.60;79.00;;;;;;5079209;28;20383;-67